sensor_id;sensor_type;location;lat;lon;timestamp;P1;durP1;ratioP1;P2;durP2;ratioP2
11518;SDS011;5816;48.228;14.116;2023-12-20T05:23:28;34.63;;;31.33;;
11518;SDS011;5816;48.228;14.116;2023-12-20T05:28:29;33.43;;;30.63;;
11518;SDS011;5816;48.228;14.116;2023-12-20T05:33:31;39.90;;;36.30;;
11518;SDS011;5816;48.228;14.116;2023-12-20T05:38:33;35.77;;;32.57;;
11518;SDS011;5816;48.228;14.116;2023-12-20T05:43:34;33.63;;;30.67;;
11518;SDS011;5816;48.228;14.116;2023-12-20T05:48:36;31.93;;;29.33;;
11518;SDS011;5816;48.228;14.116;2023-12-20T05:53:38;33.87;;;30.63;;
11518;SDS011;5816;48.228;14.116;2023-12-20T05:58:39;30.33;;;27.83;;
11518;SDS011;5816;48.228;14.116;2023-12-20T06:03:42;29.63;;;27.33;;
11518;SDS011;5816;48.228;14.116;2023-12-20T06:08:44;29.50;;;27.20;;
11518;SDS011;5816;48.228;14.116;2023-12-20T06:13:52;30.90;;;28.13;;
11518;SDS011;5816;48.228;14.116;2023-12-20T06:18:54;32.72;;;30.13;;
11518;SDS011;5816;48.228;14.116;2023-12-20T06:23:56;30.43;;;28.03;;
11518;SDS011;5816;48.228;14.116;2023-12-20T06:28:59;29.77;;;27.37;;
11518;SDS011;5816;48.228;14.116;2023-12-20T06:34:00;27.83;;;25.53;;
11518;SDS011;5816;48.228;14.116;2023-12-20T06:39:02;33.97;;;31.07;;
11518;SDS011;5816;48.228;14.116;2023-12-20T06:44:06;30.37;;;27.97;;
11518;SDS011;5816;48.228;14.116;2023-12-20T06:49:07;28.13;;;25.93;;
11518;SDS011;5816;48.228;14.116;2023-12-20T06:54:09;28.70;;;26.40;;
11518;SDS011;5816;48.228;14.116;2023-12-20T06:59:11;29.63;;;27.33;;
11518;SDS011;5816;48.228;14.116;2023-12-20T07:04:12;28.83;;;26.53;;
11518;SDS011;5816;48.228;14.116;2023-12-20T07:09:15;28.40;;;26.00;;
11518;SDS011;5816;48.228;14.116;2023-12-20T07:14:17;28.77;;;26.57;;
11518;SDS011;5816;48.228;14.116;2023-12-20T07:19:20;29.20;;;26.80;;
11518;SDS011;5816;48.228;14.116;2023-12-20T07:24:21;27.17;;;25.07;;
11518;SDS011;5816;48.228;14.116;2023-12-20T07:29:23;27.30;;;25.10;;
11518;SDS011;5816;48.228;14.116;2023-12-20T07:34:25;26.40;;;24.20;;
11518;SDS011;5816;48.228;14.116;2023-12-20T07:39:27;29.20;;;26.90;;
11518;SDS011;5816;48.228;14.116;2023-12-20T07:44:28;29.57;;;27.20;;
11518;SDS011;5816;48.228;14.116;2023-12-20T07:49:30;27.57;;;25.17;;
11518;SDS011;5816;48.228;14.116;2023-12-20T07:54:33;28.27;;;26.07;;
11518;SDS011;5816;48.228;14.116;2023-12-20T07:59:35;27.90;;;25.67;;
11518;SDS011;5816;48.228;14.116;2023-12-20T08:04:36;28.40;;;26.13;;
11518;SDS011;5816;48.228;14.116;2023-12-20T08:09:39;27.67;;;25.40;;
11518;SDS011;5816;48.228;14.116;2023-12-20T08:14:40;28.57;;;26.10;;
11518;SDS011;5816;48.228;14.116;2023-12-20T08:19:42;28.20;;;25.90;;
11518;SDS011;5816;48.228;14.116;2023-12-20T08:24:44;28.57;;;25.97;;
11518;SDS011;5816;48.228;14.116;2023-12-20T08:29:45;28.87;;;26.37;;
11518;SDS011;5816;48.228;14.116;2023-12-20T08:34:47;29.83;;;27.23;;
11518;SDS011;5816;48.228;14.116;2023-12-20T08:39:49;30.13;;;27.37;;
11518;SDS011;5816;48.228;14.116;2023-12-20T08:44:51;30.10;;;27.13;;
11518;SDS011;5816;48.228;14.116;2023-12-20T08:49:52;30.60;;;27.90;;
11518;SDS011;5816;48.228;14.116;2023-12-20T08:54:59;30.50;;;27.80;;
11518;SDS011;5816;48.228;14.116;2023-12-20T09:00:02;30.33;;;27.83;;
11518;SDS011;5816;48.228;14.116;2023-12-20T09:05:06;29.83;;;27.23;;
11518;SDS011;5816;48.228;14.116;2023-12-20T09:10:08;29.47;;;27.03;;
11518;SDS011;5816;48.228;14.116;2023-12-20T09:15:19;30.03;;;27.53;;
11518;SDS011;5816;48.228;14.116;2023-12-20T09:20:21;29.90;;;27.40;;
11518;SDS011;5816;48.228;14.116;2023-12-20T09:25:25;29.60;;;27.13;;
11518;SDS011;5816;48.228;14.116;2023-12-20T09:30:27;29.60;;;27.20;;
11518;SDS011;5816;48.228;14.116;2023-12-20T09:35:30;29.00;;;26.67;;
11518;SDS011;5816;48.228;14.116;2023-12-20T09:40:32;30.57;;;27.97;;
11518;SDS011;5816;48.228;14.116;2023-12-20T09:45:35;30.70;;;28.00;;
11518;SDS011;5816;48.228;14.116;2023-12-20T09:50:37;30.00;;;27.40;;
11518;SDS011;5816;48.228;14.116;2023-12-20T09:55:39;30.03;;;27.53;;
11518;SDS011;5816;48.228;14.116;2023-12-20T10:00:42;30.97;;;28.47;;
11518;SDS011;5816;48.228;14.116;2023-12-20T10:05:44;31.43;;;28.83;;
11518;SDS011;5816;48.228;14.116;2023-12-20T10:10:52;30.37;;;27.87;;
11518;SDS011;5816;48.228;14.116;2023-12-20T10:15:54;30.87;;;28.20;;
11518;SDS011;5816;48.228;14.116;2023-12-20T10:20:57;28.40;;;26.00;;
11518;SDS011;5816;48.228;14.116;2023-12-20T10:25:59;29.27;;;26.90;;
11518;SDS011;5816;48.228;14.116;2023-12-20T10:31:02;29.27;;;26.97;;
11518;SDS011;5816;48.228;14.116;2023-12-20T10:36:04;29.47;;;27.10;;
11518;SDS011;5816;48.228;14.116;2023-12-20T10:41:06;28.47;;;26.20;;
11518;SDS011;5816;48.228;14.116;2023-12-20T10:46:10;28.87;;;26.57;;
11518;SDS011;5816;48.228;14.116;2023-12-20T10:51:13;28.40;;;26.20;;
11518;SDS011;5816;48.228;14.116;2023-12-20T10:56:18;29.50;;;27.10;;
11518;SDS011;5816;48.228;14.116;2023-12-20T11:01:21;28.63;;;26.33;;
11518;SDS011;5816;48.228;14.116;2023-12-20T11:06:35;27.63;;;25.43;;
11518;SDS011;5816;48.228;14.116;2023-12-20T11:17:14;29.20;;;26.80;;
11518;SDS011;5816;48.228;14.116;2023-12-20T11:22:21;27.87;;;25.67;;
11518;SDS011;5816;48.228;14.116;2023-12-20T11:27:23;28.53;;;26.23;;
11518;SDS011;5816;48.228;14.116;2023-12-20T11:37:28;27.20;;;25.10;;
11518;SDS011;5816;48.228;14.116;2023-12-20T11:42:38;26.80;;;24.70;;
11518;SDS011;5816;48.228;14.116;2023-12-20T11:47:46;27.43;;;25.33;;
11518;SDS011;5816;48.228;14.116;2023-12-20T11:52:49;26.93;;;24.83;;
11518;SDS011;5816;48.228;14.116;2023-12-20T11:57:53;26.37;;;24.30;;
11518;SDS011;5816;48.228;14.116;2023-12-20T12:02:58;27.70;;;25.50;;
11518;SDS011;5816;48.228;14.116;2023-12-20T12:08:00;27.27;;;25.17;;
11518;SDS011;5816;48.228;14.116;2023-12-20T12:13:04;27.70;;;25.40;;
11518;SDS011;5816;48.228;14.116;2023-12-20T12:18:06;27.93;;;25.63;;
11518;SDS011;5816;48.228;14.116;2023-12-20T12:23:10;27.27;;;25.07;;
11518;SDS011;5816;48.228;14.116;2023-12-20T12:28:12;27.13;;;25.03;;
11518;SDS011;5816;48.228;14.116;2023-12-20T12:33:14;32.37;;;29.20;;
11518;SDS011;5816;48.228;14.116;2023-12-20T12:38:21;27.43;;;25.23;;
11518;SDS011;5816;48.228;14.116;2023-12-20T12:43:29;27.60;;;25.40;;
11518;SDS011;5816;48.228;14.116;2023-12-20T12:48:32;27.93;;;25.83;;
11518;SDS011;5816;48.228;14.116;2023-12-20T12:53:44;27.80;;;25.60;;
11518;SDS011;5816;48.228;14.116;2023-12-20T12:58:45;27.10;;;25.00;;
11518;SDS011;5816;48.228;14.116;2023-12-20T13:03:47;27.13;;;25.03;;
11518;SDS011;5816;48.228;14.116;2023-12-20T13:08:49;26.97;;;24.87;;
11518;SDS011;5816;48.228;14.116;2023-12-20T13:13:51;27.20;;;25.10;;
11518;SDS011;5816;48.228;14.116;2023-12-20T13:18:52;28.00;;;25.80;;
11518;SDS011;5816;48.228;14.116;2023-12-20T13:23:54;27.50;;;25.20;;
11518;SDS011;5816;48.228;14.116;2023-12-20T13:28:56;26.83;;;24.83;;
11518;SDS011;5816;48.228;14.116;2023-12-20T13:33:58;27.27;;;25.27;;
11518;SDS011;5816;48.228;14.116;2023-12-20T13:38:59;28.20;;;25.93;;
11518;SDS011;5816;48.228;14.116;2023-12-20T13:44:01;28.20;;;26.00;;
11518;SDS011;5816;48.228;14.116;2023-12-20T13:49:04;27.70;;;25.50;;
11518;SDS011;5816;48.228;14.116;2023-12-20T13:54:06;27.83;;;25.73;;
11518;SDS011;5816;48.228;14.116;2023-12-20T13:59:08;28.80;;;26.50;;
11518;SDS011;5816;48.228;14.116;2023-12-20T14:04:09;28.77;;;26.47;;
11518;SDS011;5816;48.228;14.116;2023-12-20T14:09:33;28.13;;;25.87;;
11518;SDS011;5816;48.228;14.116;2023-12-20T14:14:35;27.83;;;25.73;;
11518;SDS011;5816;48.228;14.116;2023-12-20T14:19:37;28.40;;;26.30;;
11518;SDS011;5816;48.228;14.116;2023-12-20T14:24:38;28.57;;;26.47;;
11518;SDS011;5816;48.228;14.116;2023-12-20T14:29:40;28.60;;;26.50;;
11518;SDS011;5816;48.228;14.116;2023-12-20T14:34:42;27.80;;;25.70;;
11518;SDS011;5816;48.228;14.116;2023-12-20T14:39:45;29.17;;;27.03;;
11518;SDS011;5816;48.228;14.116;2023-12-20T14:44:53;28.43;;;26.37;;
11518;SDS011;5816;48.228;14.116;2023-12-20T14:49:55;27.27;;;25.27;;
11518;SDS011;5816;48.228;14.116;2023-12-20T14:54:57;26.77;;;24.77;;
11518;SDS011;5816;48.228;14.116;2023-12-20T14:59:58;26.20;;;24.30;;
11518;SDS011;5816;48.228;14.116;2023-12-20T15:05:07;26.03;;;24.23;;
11518;SDS011;5816;48.228;14.116;2023-12-20T15:10:09;25.73;;;23.83;;
11518;SDS011;5816;48.228;14.116;2023-12-20T15:15:11;25.27;;;23.57;;
11518;SDS011;5816;48.228;14.116;2023-12-20T15:20:12;25.87;;;23.97;;
11518;SDS011;5816;48.228;14.116;2023-12-20T15:25:15;25.30;;;23.60;;
11518;SDS011;5816;48.228;14.116;2023-12-20T15:30:23;25.90;;;24.13;;
11518;SDS011;5816;48.228;14.116;2023-12-20T15:35:27;26.17;;;24.27;;
11518;SDS011;5816;48.228;14.116;2023-12-20T15:40:29;25.13;;;23.33;;
11518;SDS011;5816;48.228;14.116;2023-12-20T15:45:31;24.67;;;22.97;;
11518;SDS011;5816;48.228;14.116;2023-12-20T15:50:32;25.73;;;23.73;;
11518;SDS011;5816;48.228;14.116;2023-12-20T15:55:34;25.83;;;23.83;;
11518;SDS011;5816;48.228;14.116;2023-12-20T16:00:36;25.37;;;23.37;;
11518;SDS011;5816;48.228;14.116;2023-12-20T16:05:38;25.97;;;24.00;;
11518;SDS011;5816;48.228;14.116;2023-12-20T16:10:39;26.00;;;23.90;;
11518;SDS011;5816;48.228;14.116;2023-12-20T16:15:41;25.83;;;23.73;;
